sensor_id;sensor_type;location;lat;lon;timestamp;P1;durP1;ratioP1;P2;durP2;ratioP2
7231;SDS011;3657;49.630;11.018;2022-08-21T00:01:24;5.93;;;5.73;;
7231;SDS011;3657;49.630;11.018;2022-08-21T00:03:53;6.20;;;6.00;;
7231;SDS011;3657;49.630;11.018;2022-08-21T00:06:21;5.70;;;5.60;;
7231;SDS011;3657;49.630;11.018;2022-08-21T00:08:49;5.57;;;5.47;;
7231;SDS011;3657;49.630;11.018;2022-08-21T00:11:16;5.60;;;5.50;;
7231;SDS011;3657;49.630;11.018;2022-08-21T00:13:44;5.50;;;5.40;;
7231;SDS011;3657;49.630;11.018;2022-08-21T00:16:10;5.63;;;5.53;;
7231;SDS011;3657;49.630;11.018;2022-08-21T00:18:37;5.60;;;5.50;;
7231;SDS011;3657;49.630;11.018;2022-08-21T00:21:05;4.67;;;4.57;;
7231;SDS011;3657;49.630;11.018;2022-08-21T00:23:34;5.17;;;5.07;;
7231;SDS011;3657;49.630;11.018;2022-08-21T00:26:01;4.87;;;4.77;;
7231;SDS011;3657;49.630;11.018;2022-08-21T00:28:29;5.23;;;5.03;;
7231;SDS011;3657;49.630;11.018;2022-08-21T00:30:56;6.27;;;6.07;;
7231;SDS011;3657;49.630;11.018;2022-08-21T00:33:24;5.43;;;5.20;;
7231;SDS011;3657;49.630;11.018;2022-08-21T00:35:51;5.60;;;5.40;;
7231;SDS011;3657;49.630;11.018;2022-08-21T00:38:18;4.80;;;4.60;;
7231;SDS011;3657;49.630;11.018;2022-08-21T00:40:47;4.73;;;4.63;;
7231;SDS011;3657;49.630;11.018;2022-08-21T00:43:17;4.83;;;4.73;;
7231;SDS011;3657;49.630;11.018;2022-08-21T00:45:47;4.80;;;4.70;;
7231;SDS011;3657;49.630;11.018;2022-08-21T00:48:14;4.40;;;4.30;;
7231;SDS011;3657;49.630;11.018;2022-08-21T00:50:43;4.57;;;4.37;;
7231;SDS011;3657;49.630;11.018;2022-08-21T00:53:12;4.47;;;4.37;;
7231;SDS011;3657;49.630;11.018;2022-08-21T00:55:40;4.50;;;4.40;;
7231;SDS011;3657;49.630;11.018;2022-08-21T00:58:09;4.30;;;4.20;;
7231;SDS011;3657;49.630;11.018;2022-08-21T01:00:39;4.37;;;4.27;;
7231;SDS011;3657;49.630;11.018;2022-08-21T01:03:09;4.90;;;4.80;;
7231;SDS011;3657;49.630;11.018;2022-08-21T01:05:39;3.87;;;3.77;;
7231;SDS011;3657;49.630;11.018;2022-08-21T01:08:06;4.30;;;4.20;;
7231;SDS011;3657;49.630;11.018;2022-08-21T01:10:34;3.90;;;3.80;;
7231;SDS011;3657;49.630;11.018;2022-08-21T01:13:02;4.80;;;4.70;;
7231;SDS011;3657;49.630;11.018;2022-08-21T01:15:34;4.57;;;4.47;;
7231;SDS011;3657;49.630;11.018;2022-08-21T01:18:03;5.20;;;5.03;;
7231;SDS011;3657;49.630;11.018;2022-08-21T01:20:32;4.80;;;4.70;;
7231;SDS011;3657;49.630;11.018;2022-08-21T01:23:00;5.10;;;5.00;;
7231;SDS011;3657;49.630;11.018;2022-08-21T01:25:27;7.63;;;6.63;;
7231;SDS011;3657;49.630;11.018;2022-08-21T01:27:55;5.10;;;5.00;;
7231;SDS011;3657;49.630;11.018;2022-08-21T01:30:25;4.37;;;4.27;;
7231;SDS011;3657;49.630;11.018;2022-08-21T01:32:53;4.53;;;4.43;;
7231;SDS011;3657;49.630;11.018;2022-08-21T01:35:21;4.40;;;4.30;;
7231;SDS011;3657;49.630;11.018;2022-08-21T01:37:48;4.60;;;4.50;;
7231;SDS011;3657;49.630;11.018;2022-08-21T01:40:17;4.80;;;4.70;;
7231;SDS011;3657;49.630;11.018;2022-08-21T01:42:43;4.50;;;4.40;;
7231;SDS011;3657;49.630;11.018;2022-08-21T01:45:11;3.67;;;3.57;;
7231;SDS011;3657;49.630;11.018;2022-08-21T01:47:39;4.60;;;4.50;;
7231;SDS011;3657;49.630;11.018;2022-08-21T01:50:07;5.00;;;4.80;;
7231;SDS011;3657;49.630;11.018;2022-08-21T01:52:35;4.37;;;4.27;;
7231;SDS011;3657;49.630;11.018;2022-08-21T01:55:02;4.10;;;4.00;;
7231;SDS011;3657;49.630;11.018;2022-08-21T01:57:31;4.30;;;4.20;;
7231;SDS011;3657;49.630;11.018;2022-08-21T01:59:59;4.00;;;3.90;;
7231;SDS011;3657;49.630;11.018;2022-08-21T02:02:25;3.90;;;3.80;;
7231;SDS011;3657;49.630;11.018;2022-08-21T02:04:52;3.80;;;3.70;;
7231;SDS011;3657;49.630;11.018;2022-08-21T02:07:19;4.10;;;4.00;;
7231;SDS011;3657;49.630;11.018;2022-08-21T02:09:46;4.00;;;3.90;;
7231;SDS011;3657;49.630;11.018;2022-08-21T02:12:12;3.90;;;3.80;;
7231;SDS011;3657;49.630;11.018;2022-08-21T02:14:41;3.63;;;3.53;;
7231;SDS011;3657;49.630;11.018;2022-08-21T02:17:07;3.97;;;3.87;;
7231;SDS011;3657;49.630;11.018;2022-08-21T02:19:34;4.50;;;4.33;;
7231;SDS011;3657;49.630;11.018;2022-08-21T02:22:01;3.60;;;3.50;;
7231;SDS011;3657;49.630;11.018;2022-08-21T02:24:27;3.87;;;3.77;;
7231;SDS011;3657;49.630;11.018;2022-08-21T02:26:54;4.10;;;4.00;;
7231;SDS011;3657;49.630;11.018;2022-08-21T02:29:21;4.03;;;3.93;;
7231;SDS011;3657;49.630;11.018;2022-08-21T02:31:49;3.73;;;3.60;;
7231;SDS011;3657;49.630;11.018;2022-08-21T02:34:16;3.90;;;3.80;;
7231;SDS011;3657;49.630;11.018;2022-08-21T02:36:43;3.73;;;3.63;;
7231;SDS011;3657;49.630;11.018;2022-08-21T02:39:09;3.80;;;3.70;;
7231;SDS011;3657;49.630;11.018;2022-08-21T02:41:36;4.10;;;3.97;;
7231;SDS011;3657;49.630;11.018;2022-08-21T02:44:03;3.83;;;3.73;;
7231;SDS011;3657;49.630;11.018;2022-08-21T02:46:29;3.40;;;3.30;;
7231;SDS011;3657;49.630;11.018;2022-08-21T02:48:58;4.10;;;4.00;;
7231;SDS011;3657;49.630;11.018;2022-08-21T02:51:24;4.10;;;4.00;;
7231;SDS011;3657;49.630;11.018;2022-08-21T02:53:51;4.23;;;4.13;;
7231;SDS011;3657;49.630;11.018;2022-08-21T02:56:19;4.50;;;4.40;;
7231;SDS011;3657;49.630;11.018;2022-08-21T02:58:48;3.87;;;3.77;;
7231;SDS011;3657;49.630;11.018;2022-08-21T03:01:16;4.50;;;4.40;;
7231;SDS011;3657;49.630;11.018;2022-08-21T03:03:44;4.73;;;4.63;;
7231;SDS011;3657;49.630;11.018;2022-08-21T03:06:13;4.50;;;4.40;;
7231;SDS011;3657;49.630;11.018;2022-08-21T03:08:41;4.70;;;4.50;;
7231;SDS011;3657;49.630;11.018;2022-08-21T03:11:10;4.60;;;4.50;;
7231;SDS011;3657;49.630;11.018;2022-08-21T03:13:37;4.40;;;4.30;;
7231;SDS011;3657;49.630;11.018;2022-08-21T03:16:04;3.87;;;3.77;;
7231;SDS011;3657;49.630;11.018;2022-08-21T03:18:32;4.90;;;4.80;;
7231;SDS011;3657;49.630;11.018;2022-08-21T03:20:59;4.23;;;4.03;;
7231;SDS011;3657;49.630;11.018;2022-08-21T03:23:27;4.50;;;4.40;;
7231;SDS011;3657;49.630;11.018;2022-08-21T03:25:55;4.60;;;4.50;;
7231;SDS011;3657;49.630;11.018;2022-08-21T03:28:22;4.77;;;4.67;;
7231;SDS011;3657;49.630;11.018;2022-08-21T03:30:50;4.47;;;4.37;;
7231;SDS011;3657;49.630;11.018;2022-08-21T03:33:18;4.37;;;4.27;;
7231;SDS011;3657;49.630;11.018;2022-08-21T03:35:47;4.83;;;4.73;;
7231;SDS011;3657;49.630;11.018;2022-08-21T03:38:17;4.73;;;4.63;;
7231;SDS011;3657;49.630;11.018;2022-08-21T03:40:46;4.97;;;4.87;;
7231;SDS011;3657;49.630;11.018;2022-08-21T03:43:12;4.57;;;4.47;;
7231;SDS011;3657;49.630;11.018;2022-08-21T03:45:39;5.33;;;5.23;;
7231;SDS011;3657;49.630;11.018;2022-08-21T03:48:07;4.53;;;4.43;;
7231;SDS011;3657;49.630;11.018;2022-08-21T03:50:35;4.40;;;4.20;;
7231;SDS011;3657;49.630;11.018;2022-08-21T03:53:03;4.77;;;4.67;;
7231;SDS011;3657;49.630;11.018;2022-08-21T03:55:32;4.27;;;4.17;;
7231;SDS011;3657;49.630;11.018;2022-08-21T03:58:00;5.13;;;5.03;;
7231;SDS011;3657;49.630;11.018;2022-08-21T04:00:26;4.60;;;4.50;;
7231;SDS011;3657;49.630;11.018;2022-08-21T04:02:53;5.33;;;5.23;;
7231;SDS011;3657;49.630;11.018;2022-08-21T04:05:20;4.80;;;4.70;;
7231;SDS011;3657;49.630;11.018;2022-08-21T04:07:53;4.80;;;4.70;;
7231;SDS011;3657;49.630;11.018;2022-08-21T04:10:21;4.80;;;4.70;;
7231;SDS011;3657;49.630;11.018;2022-08-21T04:12:48;4.63;;;4.53;;
7231;SDS011;3657;49.630;11.018;2022-08-21T04:15:16;5.23;;;5.13;;
7231;SDS011;3657;49.630;11.018;2022-08-21T04:17:43;4.60;;;4.50;;
7231;SDS011;3657;49.630;11.018;2022-08-21T04:20:10;4.70;;;4.60;;
7231;SDS011;3657;49.630;11.018;2022-08-21T04:22:37;4.83;;;4.73;;
7231;SDS011;3657;49.630;11.018;2022-08-21T04:25:04;4.93;;;4.83;;
7231;SDS011;3657;49.630;11.018;2022-08-21T04:27:32;4.90;;;4.80;;
7231;SDS011;3657;49.630;11.018;2022-08-21T04:29:59;5.50;;;5.40;;
7231;SDS011;3657;49.630;11.018;2022-08-21T04:32:27;4.83;;;4.73;;
7231;SDS011;3657;49.630;11.018;2022-08-21T04:34:57;5.50;;;5.40;;
7231;SDS011;3657;49.630;11.018;2022-08-21T04:37:24;4.77;;;4.67;;
7231;SDS011;3657;49.630;11.018;2022-08-21T04:39:51;5.33;;;5.13;;
7231;SDS011;3657;49.630;11.018;2022-08-21T04:42:18;5.10;;;5.00;;
7231;SDS011;3657;49.630;11.018;2022-08-21T04:44:47;5.10;;;5.00;;
7231;SDS011;3657;49.630;11.018;2022-08-21T04:47:13;5.27;;;5.17;;
7231;SDS011;3657;49.630;11.018;2022-08-21T04:49:43;4.90;;;4.80;;
7231;SDS011;3657;49.630;11.018;2022-08-21T04:52:10;4.83;;;4.73;;
7231;SDS011;3657;49.630;11.018;2022-08-21T04:54:39;4.93;;;4.83;;
7231;SDS011;3657;49.630;11.018;2022-08-21T04:57:08;4.63;;;4.53;;
7231;SDS011;3657;49.630;11.018;2022-08-21T04:59:37;4.80;;;4.70;;
7231;SDS011;3657;49.630;11.018;2022-08-21T05:02:06;4.47;;;4.37;;
7231;SDS011;3657;49.630;11.018;2022-08-21T05:04:34;5.23;;;5.13;;
7231;SDS011;3657;49.630;11.018;2022-08-21T05:07:05;4.90;;;4.80;;
7231;SDS011;3657;49.630;11.018;2022-08-21T05:09:36;4.53;;;4.43;;
7231;SDS011;3657;49.630;11.018;2022-08-21T05:12:04;5.23;;;5.13;;
7231;SDS011;3657;49.630;11.018;2022-08-21T05:14:30;4.97;;;4.87;;
7231;SDS011;3657;49.630;11.018;2022-08-21T05:16:58;5.30;;;5.13;;
7231;SDS011;3657;49.630;11.018;2022-08-21T05:19:24;4.70;;;4.60;;
7231;SDS011;3657;49.630;11.018;2022-08-21T05:21:52;4.30;;;4.20;;
7231;SDS011;3657;49.630;11.018;2022-08-21T05:24:21;4.80;;;4.60;;
7231;SDS011;3657;49.630;11.018;2022-08-21T05:26:47;4.30;;;4.20;;
7231;SDS011;3657;49.630;11.018;2022-08-21T05:29:15;5.20;;;5.10;;
7231;SDS011;3657;49.630;11.018;2022-08-21T05:31:42;5.40;;;5.30;;
7231;SDS011;3657;49.630;11.018;2022-08-21T05:34:10;4.87;;;4.77;;
7231;SDS011;3657;49.630;11.018;2022-08-21T05:36:36;4.80;;;4.60;;
7231;SDS011;3657;49.630;11.018;2022-08-21T05:39:03;4.67;;;4.57;;
7231;SDS011;3657;49.630;11.018;2022-08-21T05:41:31;4.20;;;4.10;;
7231;SDS011;3657;49.630;11.018;2022-08-21T05:43:58;4.20;;;4.10;;
7231;SDS011;3657;49.630;11.018;2022-08-21T05:46:24;3.70;;;3.60;;
7231;SDS011;3657;49.630;11.018;2022-08-21T05:48:51;4.43;;;4.33;;
7231;SDS011;3657;49.630;11.018;2022-08-21T05:51:18;4.60;;;4.50;;
7231;SDS011;3657;49.630;11.018;2022-08-21T05:53:45;4.50;;;4.40;;
7231;SDS011;3657;49.630;11.018;2022-08-21T05:56:12;7.27;;;7.07;;
7231;SDS011;3657;49.630;11.018;2022-08-21T05:58:41;4.90;;;4.70;;
7231;SDS011;3657;49.630;11.018;2022-08-21T06:01:08;4.10;;;4.00;;
7231;SDS011;3657;49.630;11.018;2022-08-21T06:03:36;10.23;;;9.73;;
7231;SDS011;3657;49.630;11.018;2022-08-21T06:06:04;10.00;;;9.07;;
7231;SDS011;3657;49.630;11.018;2022-08-21T06:08:32;5.47;;;5.37;;
7231;SDS011;3657;49.630;11.018;2022-08-21T06:11:00;6.90;;;6.70;;
7231;SDS011;3657;49.630;11.018;2022-08-21T06:13:27;6.73;;;6.43;;
7231;SDS011;3657;49.630;11.018;2022-08-21T06:16:01;5.77;;;5.57;;
7231;SDS011;3657;49.630;11.018;2022-08-21T06:18:30;4.97;;;4.87;;
7231;SDS011;3657;49.630;11.018;2022-08-21T06:20:56;5.90;;;5.70;;
7231;SDS011;3657;49.630;11.018;2022-08-21T06:23:23;6.83;;;6.60;;
7231;SDS011;3657;49.630;11.018;2022-08-21T06:25:50;6.40;;;6.20;;
7231;SDS011;3657;49.630;11.018;2022-08-21T06:28:18;5.57;;;5.47;;
7231;SDS011;3657;49.630;11.018;2022-08-21T06:30:44;7.07;;;6.87;;
7231;SDS011;3657;49.630;11.018;2022-08-21T06:33:12;5.77;;;5.57;;
7231;SDS011;3657;49.630;11.018;2022-08-21T06:35:39;6.03;;;5.83;;
7231;SDS011;3657;49.630;11.018;2022-08-21T06:38:06;6.43;;;6.23;;
7231;SDS011;3657;49.630;11.018;2022-08-21T06:40:33;6.07;;;5.87;;
7231;SDS011;3657;49.630;11.018;2022-08-21T06:43:04;5.93;;;5.73;;
7231;SDS011;3657;49.630;11.018;2022-08-21T06:45:32;5.63;;;5.53;;
7231;SDS011;3657;49.630;11.018;2022-08-21T06:47:59;6.27;;;6.07;;
7231;SDS011;3657;49.630;11.018;2022-08-21T06:50:27;8.23;;;7.83;;
7231;SDS011;3657;49.630;11.018;2022-08-21T06:52:58;7.87;;;7.57;;
7231;SDS011;3657;49.630;11.018;2022-08-21T06:55:26;6.50;;;6.30;;
7231;SDS011;3657;49.630;11.018;2022-08-21T06:57:53;6.17;;;5.97;;
7231;SDS011;3657;49.630;11.018;2022-08-21T07:00:20;5.70;;;5.57;;
7231;SDS011;3657;49.630;11.018;2022-08-21T07:02:47;7.73;;;7.43;;
7231;SDS011;3657;49.630;11.018;2022-08-21T07:05:14;5.83;;;5.63;;
7231;SDS011;3657;49.630;11.018;2022-08-21T07:07:45;6.10;;;5.90;;
7231;SDS011;3657;49.630;11.018;2022-08-21T07:10:12;7.30;;;7.07;;
7231;SDS011;3657;49.630;11.018;2022-08-21T07:12:39;6.80;;;6.60;;
7231;SDS011;3657;49.630;11.018;2022-08-21T07:15:07;9.17;;;8.77;;
7231;SDS011;3657;49.630;11.018;2022-08-21T07:17:34;6.40;;;6.20;;
7231;SDS011;3657;49.630;11.018;2022-08-21T07:20:01;5.93;;;5.73;;
7231;SDS011;3657;49.630;11.018;2022-08-21T07:22:28;5.77;;;5.57;;
7231;SDS011;3657;49.630;11.018;2022-08-21T07:24:57;6.10;;;5.90;;
7231;SDS011;3657;49.630;11.018;2022-08-21T07:27:23;6.43;;;6.23;;
7231;SDS011;3657;49.630;11.018;2022-08-21T07:29:50;5.80;;;5.60;;
7231;SDS011;3657;49.630;11.018;2022-08-21T07:32:17;5.83;;;5.63;;
7231;SDS011;3657;49.630;11.018;2022-08-21T07:34:44;7.93;;;7.63;;
7231;SDS011;3657;49.630;11.018;2022-08-21T07:37:10;6.83;;;6.63;;
7231;SDS011;3657;49.630;11.018;2022-08-21T07:39:37;6.40;;;6.20;;
7231;SDS011;3657;49.630;11.018;2022-08-21T07:42:05;6.23;;;6.03;;
7231;SDS011;3657;49.630;11.018;2022-08-21T07:44:32;7.07;;;6.87;;
7231;SDS011;3657;49.630;11.018;2022-08-21T07:46:59;6.30;;;6.00;;
7231;SDS011;3657;49.630;11.018;2022-08-21T07:49:26;7.13;;;6.93;;
7231;SDS011;3657;49.630;11.018;2022-08-21T07:51:53;6.70;;;6.50;;
7231;SDS011;3657;49.630;11.018;2022-08-21T07:54:20;7.10;;;6.90;;
7231;SDS011;3657;49.630;11.018;2022-08-21T07:56:47;6.37;;;6.17;;
7231;SDS011;3657;49.630;11.018;2022-08-21T07:59:15;6.30;;;6.10;;
7231;SDS011;3657;49.630;11.018;2022-08-21T08:01:41;7.10;;;6.90;;
7231;SDS011;3657;49.630;11.018;2022-08-21T08:04:08;7.27;;;7.07;;
7231;SDS011;3657;49.630;11.018;2022-08-21T08:06:34;6.60;;;6.40;;
7231;SDS011;3657;49.630;11.018;2022-08-21T08:09:01;6.83;;;6.63;;
7231;SDS011;3657;49.630;11.018;2022-08-21T08:11:28;6.53;;;6.33;;
7231;SDS011;3657;49.630;11.018;2022-08-21T08:13:55;7.20;;;7.00;;
7231;SDS011;3657;49.630;11.018;2022-08-21T08:16:25;6.43;;;6.23;;
7231;SDS011;3657;49.630;11.018;2022-08-21T08:18:52;7.73;;;7.47;;
7231;SDS011;3657;49.630;11.018;2022-08-21T08:21:20;7.97;;;7.67;;
7231;SDS011;3657;49.630;11.018;2022-08-21T08:23:47;7.53;;;7.23;;
7231;SDS011;3657;49.630;11.018;2022-08-21T08:26:14;9.10;;;8.80;;
7231;SDS011;3657;49.630;11.018;2022-08-21T08:28:41;7.97;;;7.73;;
7231;SDS011;3657;49.630;11.018;2022-08-21T08:31:08;7.83;;;7.63;;
7231;SDS011;3657;49.630;11.018;2022-08-21T08:33:37;7.37;;;7.17;;
7231;SDS011;3657;49.630;11.018;2022-08-21T08:36:04;8.83;;;8.53;;
7231;SDS011;3657;49.630;11.018;2022-08-21T08:38:31;9.27;;;8.97;;
7231;SDS011;3657;49.630;11.018;2022-08-21T08:41:00;8.27;;;7.97;;
7231;SDS011;3657;49.630;11.018;2022-08-21T08:43:32;8.67;;;8.37;;
7231;SDS011;3657;49.630;11.018;2022-08-21T08:46:01;8.03;;;7.80;;
7231;SDS011;3657;49.630;11.018;2022-08-21T08:48:34;8.33;;;8.13;;
7231;SDS011;3657;49.630;11.018;2022-08-21T08:51:11;7.63;;;7.43;;
7231;SDS011;3657;49.630;11.018;2022-08-21T08:53:45;10.30;;;9.90;;
7231;SDS011;3657;49.630;11.018;2022-08-21T08:56:15;8.20;;;8.00;;
7231;SDS011;3657;49.630;11.018;2022-08-21T08:58:48;8.67;;;8.37;;
7231;SDS011;3657;49.630;11.018;2022-08-21T09:01:18;16.90;;;16.03;;
7231;SDS011;3657;49.630;11.018;2022-08-21T09:03:48;9.37;;;8.97;;
7231;SDS011;3657;49.630;11.018;2022-08-21T09:06:20;10.50;;;10.13;;
7231;SDS011;3657;49.630;11.018;2022-08-21T09:09:05;9.30;;;9.00;;
7231;SDS011;3657;49.630;11.018;2022-08-21T09:11:45;13.10;;;12.57;;
7231;SDS011;3657;49.630;11.018;2022-08-21T09:14:25;10.70;;;10.27;;
7231;SDS011;3657;49.630;11.018;2022-08-21T09:17:01;9.43;;;9.07;;
7231;SDS011;3657;49.630;11.018;2022-08-21T09:19:53;10.23;;;9.83;;
7231;SDS011;3657;49.630;11.018;2022-08-21T09:22:30;13.70;;;13.10;;
7231;SDS011;3657;49.630;11.018;2022-08-21T09:25:08;10.73;;;10.33;;
7231;SDS011;3657;49.630;11.018;2022-08-21T09:27:41;10.13;;;9.83;;
7231;SDS011;3657;49.630;11.018;2022-08-21T09:30:08;9.80;;;9.50;;
7231;SDS011;3657;49.630;11.018;2022-08-21T09:32:36;9.40;;;9.10;;
7231;SDS011;3657;49.630;11.018;2022-08-21T09:35:07;10.27;;;9.97;;
7231;SDS011;3657;49.630;11.018;2022-08-21T09:37:45;9.73;;;9.43;;
7231;SDS011;3657;49.630;11.018;2022-08-21T09:40:19;10.37;;;9.97;;
7231;SDS011;3657;49.630;11.018;2022-08-21T09:42:59;10.43;;;10.13;;
7231;SDS011;3657;49.630;11.018;2022-08-21T09:45:28;10.33;;;10.03;;
7231;SDS011;3657;49.630;11.018;2022-08-21T09:47:55;16.77;;;15.73;;
7231;SDS011;3657;49.630;11.018;2022-08-21T09:50:25;10.30;;;9.90;;
7231;SDS011;3657;49.630;11.018;2022-08-21T09:52:55;11.37;;;10.93;;
7231;SDS011;3657;49.630;11.018;2022-08-21T09:55:29;20.20;;;18.90;;
7231;SDS011;3657;49.630;11.018;2022-08-21T09:58:16;10.57;;;10.17;;
7231;SDS011;3657;49.630;11.018;2022-08-21T10:00:45;11.20;;;10.80;;
7231;SDS011;3657;49.630;11.018;2022-08-21T10:03:22;11.77;;;11.37;;
7231;SDS011;3657;49.630;11.018;2022-08-21T10:05:52;10.80;;;10.40;;
7231;SDS011;3657;49.630;11.018;2022-08-21T10:08:22;9.40;;;9.10;;
7231;SDS011;3657;49.630;11.018;2022-08-21T10:10:51;9.83;;;9.53;;
7231;SDS011;3657;49.630;11.018;2022-08-21T10:13:22;12.27;;;11.87;;
7231;SDS011;3657;49.630;11.018;2022-08-21T10:16:00;12.20;;;11.80;;
7231;SDS011;3657;49.630;11.018;2022-08-21T10:18:38;12.13;;;11.60;;
7231;SDS011;3657;49.630;11.018;2022-08-21T10:21:10;12.73;;;12.33;;
7231;SDS011;3657;49.630;11.018;2022-08-21T10:23:50;11.20;;;10.80;;
7231;SDS011;3657;49.630;11.018;2022-08-21T10:26:28;11.13;;;10.77;;
7231;SDS011;3657;49.630;11.018;2022-08-21T10:29:04;15.23;;;14.63;;
7231;SDS011;3657;49.630;11.018;2022-08-21T10:31:37;13.10;;;12.63;;
7231;SDS011;3657;49.630;11.018;2022-08-21T10:34:13;15.77;;;14.93;;
7231;SDS011;3657;49.630;11.018;2022-08-21T10:37:01;11.60;;;11.20;;
7231;SDS011;3657;49.630;11.018;2022-08-21T10:39:35;11.80;;;11.50;;
7231;SDS011;3657;49.630;11.018;2022-08-21T10:42:09;17.20;;;16.30;;
7231;SDS011;3657;49.630;11.018;2022-08-21T10:44:56;13.00;;;12.50;;
7231;SDS011;3657;49.630;11.018;2022-08-21T10:47:37;11.87;;;11.47;;
7231;SDS011;3657;49.630;11.018;2022-08-21T10:50:09;17.50;;;16.67;;
7231;SDS011;3657;49.630;11.018;2022-08-21T10:52:49;19.30;;;18.30;;
7231;SDS011;3657;49.630;11.018;2022-08-21T10:55:33;11.03;;;10.63;;
7231;SDS011;3657;49.630;11.018;2022-08-21T10:58:04;12.37;;;11.97;;
7231;SDS011;3657;49.630;11.018;2022-08-21T11:00:36;10.07;;;9.77;;
7231;SDS011;3657;49.630;11.018;2022-08-21T11:03:11;15.83;;;15.13;;
7231;SDS011;3657;49.630;11.018;2022-08-21T11:05:41;11.10;;;10.80;;
7231;SDS011;3657;49.630;11.018;2022-08-21T11:08:14;10.43;;;10.13;;
7231;SDS011;3657;49.630;11.018;2022-08-21T11:10:44;10.77;;;10.47;;
7231;SDS011;3657;49.630;11.018;2022-08-21T11:13:13;15.57;;;14.93;;
7231;SDS011;3657;49.630;11.018;2022-08-21T11:15:48;14.10;;;13.50;;
7231;SDS011;3657;49.630;11.018;2022-08-21T11:18:22;11.07;;;10.77;;
7231;SDS011;3657;49.630;11.018;2022-08-21T11:20:56;10.83;;;10.40;;
7231;SDS011;3657;49.630;11.018;2022-08-21T11:23:31;10.90;;;10.50;;
7231;SDS011;3657;49.630;11.018;2022-08-21T11:26:05;12.07;;;11.67;;
7231;SDS011;3657;49.630;11.018;2022-08-21T11:28:37;10.17;;;9.87;;
7231;SDS011;3657;49.630;11.018;2022-08-21T11:31:14;10.33;;;10.03;;
7231;SDS011;3657;49.630;11.018;2022-08-21T11:33:55;10.43;;;10.03;;
7231;SDS011;3657;49.630;11.018;2022-08-21T11:36:36;10.53;;;10.23;;
7231;SDS011;3657;49.630;11.018;2022-08-21T11:39:12;10.10;;;9.80;;
7231;SDS011;3657;49.630;11.018;2022-08-21T11:41:47;10.70;;;10.40;;
7231;SDS011;3657;49.630;11.018;2022-08-21T11:44:24;9.47;;;9.17;;
7231;SDS011;3657;49.630;11.018;2022-08-21T11:47:02;9.83;;;9.53;;
7231;SDS011;3657;49.630;11.018;2022-08-21T11:49:42;7.97;;;7.67;;
7231;SDS011;3657;49.630;11.018;2022-08-21T11:52:16;8.20;;;8.00;;
7231;SDS011;3657;49.630;11.018;2022-08-21T11:54:49;8.93;;;8.63;;
7231;SDS011;3657;49.630;11.018;2022-08-21T11:57:22;7.63;;;7.43;;
7231;SDS011;3657;49.630;11.018;2022-08-21T11:59:53;7.67;;;7.47;;
7231;SDS011;3657;49.630;11.018;2022-08-21T12:02:29;8.00;;;7.80;;
7231;SDS011;3657;49.630;11.018;2022-08-21T12:05:00;7.17;;;6.97;;
7231;SDS011;3657;49.630;11.018;2022-08-21T12:07:32;7.87;;;7.67;;
7231;SDS011;3657;49.630;11.018;2022-08-21T12:10:03;7.30;;;7.10;;
7231;SDS011;3657;49.630;11.018;2022-08-21T12:12:31;8.90;;;8.57;;
7231;SDS011;3657;49.630;11.018;2022-08-21T12:15:13;8.00;;;7.70;;
7231;SDS011;3657;49.630;11.018;2022-08-21T12:17:51;9.37;;;9.10;;
7231;SDS011;3657;49.630;11.018;2022-08-21T12:20:23;7.77;;;7.57;;
7231;SDS011;3657;49.630;11.018;2022-08-21T12:23:04;7.53;;;7.33;;
7231;SDS011;3657;49.630;11.018;2022-08-21T12:25:44;7.53;;;7.33;;
7231;SDS011;3657;49.630;11.018;2022-08-21T12:28:13;7.30;;;7.10;;
7231;SDS011;3657;49.630;11.018;2022-08-21T12:30:42;7.27;;;7.07;;
7231;SDS011;3657;49.630;11.018;2022-08-21T12:33:19;7.10;;;6.90;;
7231;SDS011;3657;49.630;11.018;2022-08-21T12:35:49;7.60;;;7.40;;
7231;SDS011;3657;49.630;11.018;2022-08-21T12:38:18;7.93;;;7.63;;
7231;SDS011;3657;49.630;11.018;2022-08-21T12:40:50;8.37;;;8.07;;
7231;SDS011;3657;49.630;11.018;2022-08-21T12:43:21;7.80;;;7.60;;
7231;SDS011;3657;49.630;11.018;2022-08-21T12:45:52;6.77;;;6.57;;
7231;SDS011;3657;49.630;11.018;2022-08-21T12:48:20;6.97;;;6.77;;
7231;SDS011;3657;49.630;11.018;2022-08-21T12:50:50;7.60;;;7.30;;
7231;SDS011;3657;49.630;11.018;2022-08-21T12:53:22;6.43;;;6.23;;
7231;SDS011;3657;49.630;11.018;2022-08-21T12:55:54;6.43;;;6.27;;
7231;SDS011;3657;49.630;11.018;2022-08-21T12:58:26;7.57;;;7.37;;
7231;SDS011;3657;49.630;11.018;2022-08-21T13:00:54;8.00;;;7.70;;
7231;SDS011;3657;49.630;11.018;2022-08-21T13:03:23;7.00;;;6.80;;
7231;SDS011;3657;49.630;11.018;2022-08-21T13:05:50;7.20;;;7.00;;
7231;SDS011;3657;49.630;11.018;2022-08-21T13:08:18;6.70;;;6.50;;
7231;SDS011;3657;49.630;11.018;2022-08-21T13:10:47;7.30;;;7.10;;
7231;SDS011;3657;49.630;11.018;2022-08-21T13:13:24;7.23;;;7.03;;
7231;SDS011;3657;49.630;11.018;2022-08-21T13:15:56;6.90;;;6.70;;
7231;SDS011;3657;49.630;11.018;2022-08-21T13:18:25;7.33;;;7.13;;
7231;SDS011;3657;49.630;11.018;2022-08-21T13:21:02;7.03;;;6.83;;
7231;SDS011;3657;49.630;11.018;2022-08-21T13:23:31;7.10;;;6.90;;
7231;SDS011;3657;49.630;11.018;2022-08-21T13:25:58;7.63;;;7.43;;
7231;SDS011;3657;49.630;11.018;2022-08-21T13:28:32;6.83;;;6.63;;
7231;SDS011;3657;49.630;11.018;2022-08-21T13:31:05;7.53;;;7.33;;
7231;SDS011;3657;49.630;11.018;2022-08-21T13:33:35;7.20;;;7.00;;
7231;SDS011;3657;49.630;11.018;2022-08-21T13:36:04;7.43;;;7.23;;
7231;SDS011;3657;49.630;11.018;2022-08-21T13:38:35;6.10;;;6.00;;
7231;SDS011;3657;49.630;11.018;2022-08-21T13:41:05;6.97;;;6.77;;
7231;SDS011;3657;49.630;11.018;2022-08-21T13:43:48;7.90;;;7.60;;
7231;SDS011;3657;49.630;11.018;2022-08-21T13:46:17;6.87;;;6.67;;
7231;SDS011;3657;49.630;11.018;2022-08-21T13:48:45;6.63;;;6.43;;
7231;SDS011;3657;49.630;11.018;2022-08-21T13:51:12;6.93;;;6.73;;
7231;SDS011;3657;49.630;11.018;2022-08-21T13:53:44;6.80;;;6.60;;
7231;SDS011;3657;49.630;11.018;2022-08-21T13:56:21;5.97;;;5.87;;
7231;SDS011;3657;49.630;11.018;2022-08-21T13:58:52;7.07;;;6.87;;
7231;SDS011;3657;49.630;11.018;2022-08-21T14:01:20;6.60;;;6.40;;
7231;SDS011;3657;49.630;11.018;2022-08-21T14:03:50;5.90;;;5.70;;
7231;SDS011;3657;49.630;11.018;2022-08-21T14:06:23;6.33;;;6.17;;
7231;SDS011;3657;49.630;11.018;2022-08-21T14:08:53;5.60;;;5.50;;
7231;SDS011;3657;49.630;11.018;2022-08-21T14:11:22;6.30;;;6.10;;
7231;SDS011;3657;49.630;11.018;2022-08-21T14:13:56;5.87;;;5.67;;
7231;SDS011;3657;49.630;11.018;2022-08-21T14:16:26;6.03;;;5.90;;
7231;SDS011;3657;49.630;11.018;2022-08-21T14:19:07;6.27;;;6.17;;
7231;SDS011;3657;49.630;11.018;2022-08-21T14:21:36;6.23;;;6.03;;
7231;SDS011;3657;49.630;11.018;2022-08-21T14:24:07;5.60;;;5.50;;
7231;SDS011;3657;49.630;11.018;2022-08-21T14:26:36;5.60;;;5.50;;
7231;SDS011;3657;49.630;11.018;2022-08-21T14:29:11;4.90;;;4.80;;
7231;SDS011;3657;49.630;11.018;2022-08-21T14:31:40;5.80;;;5.60;;
7231;SDS011;3657;49.630;11.018;2022-08-21T14:34:07;4.90;;;4.80;;
7231;SDS011;3657;49.630;11.018;2022-08-21T14:36:36;5.87;;;5.77;;
7231;SDS011;3657;49.630;11.018;2022-08-21T14:39:03;5.70;;;5.60;;
7231;SDS011;3657;49.630;11.018;2022-08-21T14:41:30;5.67;;;5.57;;
7231;SDS011;3657;49.630;11.018;2022-08-21T14:43:57;5.53;;;5.43;;
7231;SDS011;3657;49.630;11.018;2022-08-21T14:46:25;5.43;;;5.33;;
7231;SDS011;3657;49.630;11.018;2022-08-21T14:48:54;5.57;;;5.37;;
7231;SDS011;3657;49.630;11.018;2022-08-21T14:51:21;5.53;;;5.43;;
7231;SDS011;3657;49.630;11.018;2022-08-21T14:53:48;5.63;;;5.43;;
7231;SDS011;3657;49.630;11.018;2022-08-21T14:56:15;5.07;;;4.97;;
7231;SDS011;3657;49.630;11.018;2022-08-21T14:58:42;5.83;;;5.50;;
7231;SDS011;3657;49.630;11.018;2022-08-21T15:01:12;5.40;;;5.30;;
7231;SDS011;3657;49.630;11.018;2022-08-21T15:03:41;5.23;;;5.13;;
7231;SDS011;3657;49.630;11.018;2022-08-21T15:06:08;5.57;;;5.47;;
7231;SDS011;3657;49.630;11.018;2022-08-21T15:08:36;5.93;;;5.83;;
7231;SDS011;3657;49.630;11.018;2022-08-21T15:11:04;5.60;;;5.50;;
7231;SDS011;3657;49.630;11.018;2022-08-21T15:13:32;5.50;;;5.40;;